createdAt,value
2022-09-23T00:02:18.423Z,50.00
2022-09-23T00:04:46.799Z,50.00
2022-09-23T00:07:13.350Z,50.10
2022-09-23T00:09:39.893Z,50.10
2022-09-23T00:12:09.052Z,50.20
2022-09-23T00:14:37.056Z,50.20
2022-09-23T00:17:03.646Z,50.10
2022-09-23T00:19:31.466Z,50.20
2022-09-23T00:21:58.049Z,50.20
2022-09-23T00:24:24.649Z,50.20
2022-09-23T00:26:51.416Z,50.20
2022-09-23T00:29:18.007Z,50.20
2022-09-23T00:31:44.569Z,50.20
2022-09-23T00:34:11.165Z,50.20
2022-09-23T00:36:38.615Z,50.30
2022-09-23T00:39:05.349Z,50.30
2022-09-23T00:41:32.394Z,50.30
2022-09-23T00:43:59.243Z,50.30
2022-09-23T00:46:28.892Z,50.20
2022-09-23T00:48:57.050Z,50.20
2022-09-23T00:51:24.511Z,50.40
2022-09-23T00:53:51.131Z,50.40
2022-09-23T00:56:17.705Z,50.20
2022-09-23T00:58:44.659Z,50.30
2022-09-23T01:01:11.963Z,50.30
2022-09-23T01:03:38.539Z,50.40
2022-09-23T01:06:05.237Z,50.30
2022-09-23T01:08:31.845Z,50.20
2022-09-23T01:11:16.860Z,50.30
2022-09-23T01:14:02.317Z,50.30
2022-09-23T01:16:34.208Z,50.30
2022-09-23T01:19:13.160Z,49.90
2022-09-23T01:22:01.213Z,49.70
2022-09-23T01:24:40.081Z,49.40
2022-09-23T01:27:19.362Z,49.20
2022-09-23T01:30:04.873Z,48.80
2022-09-23T01:32:50.352Z,48.80
2022-09-23T01:35:19.971Z,48.70
2022-09-23T01:37:51.139Z,48.70
2022-09-23T01:40:37.928Z,48.80
2022-09-23T01:43:05.864Z,49.00
2022-09-23T01:45:54.499Z,49.00
2022-09-23T01:48:21.684Z,49.10
2022-09-23T01:50:57.020Z,49.20
2022-09-23T01:53:25.046Z,49.20
2022-09-23T01:55:53.058Z,49.30
2022-09-23T01:58:21.270Z,49.30
2022-09-23T02:00:55.790Z,49.30
2022-09-23T02:03:26.772Z,49.30
2022-09-23T02:05:56.950Z,49.40
2022-09-23T02:08:31.934Z,49.50
2022-09-23T02:11:04.675Z,49.50
2022-09-23T02:13:34.097Z,49.60
2022-09-23T02:16:01.489Z,49.50
2022-09-23T02:18:32.056Z,49.60
2022-09-23T02:21:00.351Z,49.60
2022-09-23T02:23:32.061Z,49.70
2022-09-23T02:25:58.776Z,49.60
2022-09-23T02:28:27.623Z,49.70
2022-09-23T02:30:57.977Z,49.80
2022-09-23T02:33:25.116Z,49.80
2022-09-23T02:35:54.045Z,49.80
2022-09-23T02:38:24.381Z,49.80
2022-09-23T02:40:58.743Z,49.90
2022-09-23T02:43:41.424Z,49.80
2022-09-23T02:46:08.194Z,49.90
2022-09-23T02:48:55.476Z,49.90
2022-09-23T02:51:25.334Z,49.90
2022-09-23T02:53:53.469Z,49.90
2022-09-23T02:56:21.040Z,49.90
2022-09-23T02:58:48.400Z,49.90
2022-09-23T03:01:19.012Z,50.00
2022-09-23T03:03:54.910Z,49.90
2022-09-23T03:06:28.104Z,50.00
2022-09-23T03:08:57.880Z,50.00
2022-09-23T03:11:24.717Z,50.00
2022-09-23T03:13:51.313Z,50.10
2022-09-23T03:16:24.273Z,50.60
2022-09-23T03:18:50.865Z,50.10
2022-09-23T03:21:19.806Z,50.00
2022-09-23T03:23:46.417Z,50.00
2022-09-23T03:26:23.517Z,50.00
2022-09-23T03:28:50.358Z,50.00
2022-09-23T03:31:16.968Z,50.00
2022-09-23T03:33:45.786Z,50.00
2022-09-23T03:36:31.027Z,50.10
2022-09-23T03:39:05.583Z,50.00
2022-09-23T03:41:37.220Z,49.60
2022-09-23T03:44:03.842Z,49.50
2022-09-23T03:46:30.418Z,49.20
2022-09-23T03:48:58.634Z,49.00
2022-09-23T03:51:25.651Z,48.70
2022-09-23T03:53:52.247Z,48.60
2022-09-23T03:56:18.883Z,48.70
2022-09-23T03:58:46.569Z,48.70
2022-09-23T04:01:14.776Z,48.60
2022-09-23T04:03:41.770Z,48.50
2022-09-23T04:06:08.452Z,48.60
2022-09-23T04:08:35.110Z,48.50
2022-09-23T04:11:02.384Z,48.90
2022-09-23T04:13:29.434Z,49.20
2022-09-23T04:15:56.056Z,49.20
2022-09-23T04:18:22.672Z,49.20
2022-09-23T04:20:49.341Z,49.20
2022-09-23T04:23:15.913Z,49.40
2022-09-23T04:25:48.617Z,49.40
2022-09-23T04:28:15.167Z,49.60
2022-09-23T04:30:43.628Z,49.60
2022-09-23T04:33:10.987Z,49.70
2022-09-23T04:35:40.740Z,49.90
2022-09-23T04:38:07.355Z,49.80
2022-09-23T04:40:34.290Z,50.00
2022-09-23T04:43:00.920Z,49.90
2022-09-23T04:45:27.727Z,50.10
2022-09-23T04:47:54.364Z,50.10
2022-09-23T04:50:21.048Z,50.20
2022-09-23T04:52:47.627Z,50.10
2022-09-23T04:55:14.244Z,50.00
2022-09-23T04:57:41.357Z,50.10
2022-09-23T05:00:08.385Z,50.20
2022-09-23T05:02:35.654Z,50.80
2022-09-23T05:05:02.276Z,49.80
2022-09-23T05:07:28.917Z,45.80
2022-09-23T05:09:55.487Z,42.00
2022-09-23T05:12:22.074Z,43.00
2022-09-23T05:14:48.682Z,46.20
2022-09-23T05:17:15.503Z,48.10
2022-09-23T05:19:42.493Z,48.30
2022-09-23T05:22:09.062Z,48.30
2022-09-23T05:24:35.670Z,48.30
2022-09-23T05:27:02.283Z,48.40
2022-09-23T05:29:29.110Z,48.40
2022-09-23T05:31:55.726Z,48.60
2022-09-23T05:34:23.200Z,48.70
2022-09-23T05:36:49.806Z,48.80
2022-09-23T05:39:16.357Z,48.90
2022-09-23T05:41:43.436Z,49.00
2022-09-23T05:44:10.023Z,49.10
2022-09-23T05:46:36.639Z,49.20
2022-09-23T05:49:04.316Z,49.30
2022-09-23T05:51:31.752Z,49.40
2022-09-23T05:53:58.654Z,49.40
2022-09-23T05:56:25.672Z,49.50
2022-09-23T05:58:53.096Z,49.60
2022-09-23T06:01:24.872Z,49.70
2022-09-23T06:03:51.870Z,49.60
2022-09-23T06:06:19.110Z,49.60
2022-09-23T06:08:46.045Z,49.80
2022-09-23T06:11:13.700Z,49.80
2022-09-23T06:13:40.754Z,49.70
2022-09-23T06:16:08.099Z,49.70
2022-09-23T06:18:35.118Z,49.60
2022-09-23T06:21:02.285Z,49.50
2022-09-23T06:23:28.860Z,49.30
2022-09-23T06:25:59.668Z,49.10
2022-09-23T06:28:28.386Z,48.90
2022-09-23T06:30:58.866Z,48.70
2022-09-23T06:33:34.697Z,48.80
2022-09-23T06:36:04.023Z,48.80
2022-09-23T06:38:30.736Z,48.90
2022-09-23T06:40:57.684Z,49.10
2022-09-23T06:43:24.651Z,49.10
2022-09-23T06:45:54.676Z,49.10
2022-09-23T06:48:21.572Z,49.20
2022-09-23T06:50:51.146Z,49.20
2022-09-23T06:53:17.709Z,49.30
2022-09-23T06:55:44.336Z,49.30
2022-09-23T06:58:10.941Z,49.40
2022-09-23T07:00:37.655Z,49.60
2022-09-23T07:03:08.067Z,49.60
2022-09-23T07:05:34.978Z,49.60
2022-09-23T07:08:01.650Z,49.60
2022-09-23T07:10:29.250Z,49.70
2022-09-23T07:12:55.845Z,49.70
2022-09-23T07:15:22.433Z,49.70
2022-09-23T07:17:49.468Z,49.80
2022-09-23T07:20:17.957Z,49.80
2022-09-23T07:22:48.859Z,49.80
2022-09-23T07:25:15.488Z,49.90
2022-09-23T07:27:42.061Z,49.90
2022-09-23T07:30:16.775Z,49.60
2022-09-23T07:32:49.418Z,49.70
2022-09-23T07:35:16.884Z,49.80
2022-09-23T07:37:43.788Z,50.00
2022-09-23T07:40:10.465Z,50.00
2022-09-23T07:42:38.531Z,50.00
2022-09-23T07:45:06.885Z,50.00
2022-09-23T07:47:33.525Z,50.00
2022-09-23T07:50:00.114Z,50.10
2022-09-23T07:52:26.741Z,49.80
2022-09-23T07:54:53.342Z,50.00
2022-09-23T07:57:19.899Z,50.10
2022-09-23T07:59:46.619Z,50.10
2022-09-23T08:02:14.595Z,50.10
2022-09-23T08:04:41.257Z,50.10
2022-09-23T08:07:08.977Z,50.10
2022-09-23T08:09:39.409Z,50.10
2022-09-23T08:12:06.032Z,50.10
2022-09-23T08:14:33.942Z,50.10
2022-09-23T08:17:00.570Z,50.20
2022-09-23T08:19:27.190Z,50.10
2022-09-23T08:21:54.402Z,50.10
2022-09-23T08:24:21.859Z,50.20
2022-09-23T08:26:48.496Z,50.20
2022-09-23T08:29:15.501Z,50.20
2022-09-23T08:31:42.995Z,50.20
2022-09-23T08:34:09.649Z,50.20
2022-09-23T08:36:36.280Z,50.10
2022-09-23T08:39:03.890Z,49.90
2022-09-23T08:41:52.878Z,49.60
2022-09-23T08:44:21.607Z,49.50
2022-09-23T08:46:52.701Z,49.30
2022-09-23T08:49:25.344Z,49.00
2022-09-23T08:51:54.269Z,48.80
2022-09-23T08:54:20.917Z,48.70
2022-09-23T08:56:49.162Z,48.70
2022-09-23T08:59:21.236Z,48.70
2022-09-23T09:01:47.860Z,48.80
2022-09-23T09:04:23.705Z,48.90
2022-09-23T09:06:53.904Z,49.00
2022-09-23T09:09:26.058Z,49.10
2022-09-23T09:11:54.805Z,49.10
2022-09-23T09:14:23.887Z,49.20
2022-09-23T09:16:59.917Z,49.30
2022-09-23T09:19:40.646Z,49.40
2022-09-23T09:22:07.441Z,49.40
2022-09-23T09:24:34.455Z,49.50
2022-09-23T09:27:01.863Z,49.60
2022-09-23T09:29:36.964Z,49.60
2022-09-23T09:32:27.118Z,49.60
2022-09-23T09:34:55.401Z,49.70
2022-09-23T09:37:24.981Z,49.70
2022-09-23T09:39:51.925Z,49.70
2022-09-23T09:42:26.967Z,49.80
2022-09-23T09:44:55.472Z,49.90
2022-09-23T09:47:41.400Z,49.90
2022-09-23T09:50:09.110Z,49.80
2022-09-23T09:52:40.506Z,49.80
2022-09-23T09:55:13.158Z,49.60
2022-09-23T09:57:55.958Z,49.80
2022-09-23T10:00:22.526Z,49.80
2022-09-23T10:03:15.530Z,49.80
2022-09-23T10:05:45.199Z,49.90
2022-09-23T10:08:21.174Z,49.90
2022-09-23T10:10:54.550Z,50.00
2022-09-23T10:13:27.544Z,50.00
2022-09-23T10:15:59.644Z,50.00
2022-09-23T10:18:28.356Z,50.00
2022-09-23T10:21:25.489Z,50.00
2022-09-23T10:23:55.852Z,50.10
2022-09-23T10:26:26.113Z,50.00
2022-09-23T10:28:53.186Z,50.00
2022-09-23T10:31:26.935Z,50.00
2022-09-23T10:33:59.644Z,50.00
2022-09-23T10:36:27.050Z,49.80
2022-09-23T10:39:22.128Z,49.60
2022-09-23T10:42:21.939Z,49.30
2022-09-23T10:45:21.253Z,49.10
2022-09-23T10:47:47.987Z,48.70
2022-09-23T10:50:17.190Z,48.70
2022-09-23T10:52:59.306Z,48.60
2022-09-23T10:55:38.124Z,48.70
2022-09-23T10:58:14.983Z,48.60
2022-09-23T11:00:41.581Z,48.60
2022-09-23T11:03:20.470Z,48.70
2022-09-23T11:05:47.079Z,48.80
2022-09-23T11:08:23.848Z,48.90
2022-09-23T11:10:56.199Z,48.70
2022-09-23T11:13:35.074Z,49.10
2022-09-23T11:16:14.031Z,49.20
2022-09-23T11:18:56.042Z,49.10
2022-09-23T11:21:31.857Z,49.10
2022-09-23T11:24:01.474Z,49.30
2022-09-23T11:26:33.277Z,49.20
2022-09-23T11:29:10.221Z,49.30
2022-09-23T11:31:48.929Z,49.40
2022-09-23T11:34:26.434Z,49.40
2022-09-23T11:37:12.842Z,49.50
2022-09-23T11:39:44.179Z,49.50
2022-09-23T11:42:15.965Z,49.60
2022-09-23T11:44:43.562Z,49.50
2022-09-23T11:47:16.468Z,49.60
2022-09-23T11:49:49.185Z,49.60
2022-09-23T11:52:19.703Z,49.60
2022-09-23T11:55:17.636Z,49.60
2022-09-23T11:58:01.867Z,49.60
2022-09-23T12:00:32.538Z,49.70
2022-09-23T12:03:05.598Z,49.70
2022-09-23T12:05:40.429Z,49.50
2022-09-23T12:08:10.625Z,49.50
2022-09-23T12:10:40.391Z,49.20
2022-09-23T12:13:09.992Z,49.60
2022-09-23T12:15:37.249Z,48.70
2022-09-23T12:18:04.215Z,48.70
2022-09-23T12:20:43.018Z,48.40
2022-09-23T12:23:28.610Z,48.40
2022-09-23T12:25:56.420Z,48.50
2022-09-23T12:28:24.589Z,48.60
2022-09-23T12:30:51.506Z,48.60
2022-09-23T12:33:22.527Z,48.50
2022-09-23T12:35:49.360Z,48.70
2022-09-23T12:38:22.313Z,48.80
2022-09-23T12:40:49.678Z,48.90
2022-09-23T12:43:20.100Z,48.90
2022-09-23T12:45:48.273Z,48.90
2022-09-23T12:48:18.289Z,49.20
2022-09-23T12:50:51.474Z,49.10
2022-09-23T12:53:33.211Z,49.20
2022-09-23T12:56:00.253Z,49.10
2022-09-23T12:58:42.198Z,49.20
2022-09-23T13:01:17.430Z,49.20
2022-09-23T13:04:09.809Z,49.10
2022-09-23T13:06:41.946Z,49.30
2022-09-23T13:09:27.116Z,49.30
2022-09-23T13:11:53.950Z,49.30
2022-09-23T13:14:27.262Z,49.40
2022-09-23T13:16:54.324Z,49.30
2022-09-23T13:19:27.260Z,49.50
2022-09-23T13:21:53.870Z,49.50
2022-09-23T13:24:25.071Z,49.50
2022-09-23T13:27:05.918Z,49.60
2022-09-23T13:29:43.718Z,49.60
2022-09-23T13:32:15.118Z,49.70
2022-09-23T13:34:44.215Z,49.60
2022-09-23T13:37:11.392Z,49.40
2022-09-23T13:39:37.992Z,49.30
2022-09-23T13:42:05.188Z,49.00
2022-09-23T13:44:31.751Z,48.70
2022-09-23T13:46:58.733Z,48.50
2022-09-23T13:49:29.481Z,48.50
2022-09-23T13:51:56.199Z,48.40
2022-09-23T13:54:32.188Z,48.50
2022-09-23T13:56:59.029Z,48.60
2022-09-23T13:59:26.989Z,48.60
2022-09-23T14:02:06.222Z,48.60
2022-09-23T14:04:32.934Z,48.80
2022-09-23T14:06:59.548Z,48.90
2022-09-23T14:09:27.536Z,49.10
2022-09-23T14:11:54.851Z,49.20
2022-09-23T14:14:22.933Z,49.10
2022-09-23T14:16:50.000Z,49.20
2022-09-23T14:19:20.733Z,48.70
2022-09-23T14:21:47.939Z,49.20
2022-09-23T14:24:17.802Z,49.20
2022-09-23T14:26:46.187Z,49.30
2022-09-23T14:29:25.707Z,49.10
2022-09-23T14:31:58.193Z,49.00
2022-09-23T14:34:40.789Z,49.30
2022-09-23T14:37:31.355Z,49.40
2022-09-23T14:39:58.026Z,49.50
2022-09-23T14:42:26.919Z,49.70
2022-09-23T14:44:53.487Z,49.60
2022-09-23T14:47:20.070Z,49.70
2022-09-23T14:50:07.626Z,49.10
2022-09-23T14:52:34.309Z,49.20
2022-09-23T14:55:01.304Z,49.70
2022-09-23T14:57:29.043Z,48.90
2022-09-23T15:00:09.480Z,49.00
2022-09-23T15:02:36.982Z,49.30
2022-09-23T15:05:22.409Z,49.30
2022-09-23T15:07:55.698Z,48.80
2022-09-23T15:10:23.579Z,48.70
2022-09-23T15:12:50.948Z,48.70
2022-09-23T15:15:17.622Z,48.70
2022-09-23T15:17:44.205Z,48.70
2022-09-23T15:20:22.070Z,48.90
2022-09-23T15:22:49.695Z,49.10
2022-09-23T15:25:21.347Z,49.20
2022-09-23T15:28:00.346Z,49.40
2022-09-23T15:30:27.329Z,49.40
2022-09-23T15:32:54.084Z,49.40
2022-09-23T15:35:21.596Z,49.50
2022-09-23T15:37:48.843Z,49.70
2022-09-23T15:40:22.921Z,49.70
2022-09-23T15:42:52.360Z,49.80
2022-09-23T15:45:26.550Z,49.80
2022-09-23T15:47:53.137Z,50.00
2022-09-23T15:50:19.772Z,50.00
2022-09-23T15:52:46.340Z,50.10
2022-09-23T15:55:16.742Z,50.10
2022-09-23T15:57:43.318Z,50.20
2022-09-23T16:00:12.347Z,50.30
2022-09-23T16:02:39.208Z,50.30
2022-09-23T16:05:07.680Z,50.40
2022-09-23T16:07:34.239Z,50.30
2022-09-23T16:10:01.835Z,51.00
2022-09-23T16:12:28.412Z,50.50
2022-09-23T16:14:54.972Z,50.50
2022-09-23T16:17:22.207Z,50.50
2022-09-23T16:19:48.809Z,50.30
2022-09-23T16:22:15.449Z,50.30
2022-09-23T16:24:42.159Z,49.90
2022-09-23T16:27:09.748Z,50.40
2022-09-23T16:29:36.387Z,49.70
2022-09-23T16:32:03.151Z,49.30
2022-09-23T16:34:30.028Z,49.20
2022-09-23T16:36:56.662Z,49.20
2022-09-23T16:39:23.400Z,49.20
2022-09-23T16:41:49.973Z,49.50
2022-09-23T16:44:17.536Z,48.70
2022-09-23T16:46:44.095Z,49.20
2022-09-23T16:49:12.124Z,49.30
2022-09-23T16:51:38.952Z,49.70
2022-09-23T16:54:07.922Z,49.60
2022-09-23T16:56:35.280Z,49.80
2022-09-23T16:59:01.861Z,49.80
2022-09-23T17:01:47.366Z,50.00
2022-09-23T17:04:14.484Z,50.30
2022-09-23T17:06:50.956Z,49.40
2022-09-23T17:09:18.762Z,50.40
2022-09-23T17:11:47.826Z,50.50
2022-09-23T17:14:15.046Z,50.70
2022-09-23T17:16:41.736Z,50.80
2022-09-23T17:19:09.069Z,50.80
2022-09-23T17:21:35.775Z,51.00
2022-09-23T17:24:02.556Z,51.60
2022-09-23T17:26:29.217Z,51.30
2022-09-23T17:28:56.268Z,52.00
2022-09-23T17:31:23.669Z,52.70
2022-09-23T17:33:50.504Z,52.70
2022-09-23T17:36:17.186Z,52.70
2022-09-23T17:38:44.963Z,53.20
2022-09-23T17:41:12.003Z,53.60
2022-09-23T17:43:38.920Z,53.30
2022-09-23T17:46:06.776Z,53.20
2022-09-23T17:48:34.104Z,53.10
2022-09-23T17:51:04.311Z,53.30
2022-09-23T17:53:31.378Z,53.10
2022-09-23T17:56:01.922Z,52.20
2022-09-23T17:58:28.848Z,52.10
2022-09-23T18:00:55.952Z,52.50
2022-09-23T18:03:23.166Z,52.00
2022-09-23T18:05:49.797Z,52.00
2022-09-23T18:08:16.364Z,52.50
2022-09-23T18:10:43.034Z,52.90
2022-09-23T18:13:09.605Z,53.00
2022-09-23T18:15:36.877Z,53.30
2022-09-23T18:18:03.872Z,53.40
2022-09-23T18:20:30.521Z,53.90
2022-09-23T18:22:57.128Z,54.70
2022-09-23T18:25:38.738Z,54.90
2022-09-23T18:28:06.367Z,54.50
2022-09-23T18:30:33.751Z,55.30
2022-09-23T18:33:00.306Z,54.90
2022-09-23T18:35:27.294Z,54.80
2022-09-23T18:37:53.851Z,54.90
2022-09-23T18:40:20.545Z,55.40
2022-09-23T18:42:47.706Z,55.40
2022-09-23T18:45:14.321Z,55.60
2022-09-23T18:47:59.575Z,55.90
2022-09-23T18:50:43.489Z,55.50
2022-09-23T18:53:10.172Z,55.80
2022-09-23T18:55:36.830Z,55.90
2022-09-23T18:58:03.397Z,55.70
2022-09-23T19:00:30.229Z,56.10
2022-09-23T19:02:57.608Z,56.20
2022-09-23T19:05:24.189Z,55.80
2022-09-23T19:07:51.030Z,55.80
2022-09-23T19:10:19.198Z,56.10
2022-09-23T19:12:46.617Z,56.70
2022-09-23T19:15:14.183Z,56.10
2022-09-23T19:17:40.908Z,56.30
2022-09-23T19:20:07.817Z,56.20
2022-09-23T19:22:34.454Z,56.30
2022-09-23T19:25:01.037Z,56.40
2022-09-23T19:27:27.632Z,56.60
2022-09-23T19:29:54.982Z,56.50
2022-09-23T19:32:24.379Z,56.20
2022-09-23T19:34:50.962Z,55.60
2022-09-23T19:37:17.524Z,55.40
2022-09-23T19:39:44.774Z,55.30
2022-09-23T19:42:11.427Z,55.00
2022-09-23T19:44:39.248Z,55.10
2022-09-23T19:47:06.117Z,54.20
2022-09-23T19:49:33.218Z,54.10
2022-09-23T19:52:00.426Z,54.10
2022-09-23T19:54:27.441Z,53.90
2022-09-23T19:56:54.184Z,54.20
2022-09-23T19:59:20.789Z,54.40
2022-09-23T20:01:47.958Z,54.70
2022-09-23T20:04:15.732Z,54.80
2022-09-23T20:06:42.451Z,55.10
2022-09-23T20:09:09.142Z,55.10
2022-09-23T20:11:35.793Z,55.40
2022-09-23T20:14:04.754Z,55.30
2022-09-23T20:16:32.786Z,55.40
2022-09-23T20:18:59.860Z,55.70
2022-09-23T20:21:26.554Z,55.60
2022-09-23T20:23:53.103Z,55.90
2022-09-23T20:26:38.273Z,55.90
2022-09-23T20:29:05.030Z,56.20
2022-09-23T20:31:32.246Z,56.00
2022-09-23T20:33:59.048Z,56.20
2022-09-23T20:36:26.224Z,56.30
2022-09-23T20:38:56.180Z,56.30
2022-09-23T20:41:22.878Z,56.50
2022-09-23T20:43:53.955Z,56.50
2022-09-23T20:46:23.347Z,56.30
2022-09-23T20:48:50.252Z,56.20
2022-09-23T20:51:16.959Z,56.40
2022-09-23T20:53:45.831Z,56.40
2022-09-23T20:56:13.926Z,57.30
2022-09-23T20:58:40.502Z,56.50
2022-09-23T21:01:10.742Z,56.40
2022-09-23T21:03:38.525Z,56.30
2022-09-23T21:06:05.733Z,56.30
2022-09-23T21:08:33.387Z,56.50
2022-09-23T21:11:02.354Z,56.30
2022-09-23T21:13:29.262Z,56.70
2022-09-23T21:15:55.879Z,56.60
2022-09-23T21:18:24.033Z,56.70
2022-09-23T21:20:54.381Z,56.70
2022-09-23T21:23:23.640Z,56.80
2022-09-23T21:25:50.269Z,56.60
2022-09-23T21:28:16.822Z,56.50
2022-09-23T21:30:44.872Z,56.80
2022-09-23T21:33:14.586Z,56.70
2022-09-23T21:35:41.185Z,56.60
2022-09-23T21:38:07.751Z,56.60
2022-09-23T21:40:53.073Z,56.70
2022-09-23T21:43:20.035Z,56.40
2022-09-23T21:45:47.379Z,56.70
2022-09-23T21:48:13.941Z,56.30
2022-09-23T21:50:43.436Z,56.00
2022-09-23T21:53:10.005Z,55.60
2022-09-23T21:55:36.857Z,55.50
2022-09-23T21:58:03.418Z,55.20
2022-09-23T22:00:30.029Z,55.10
2022-09-23T22:02:56.625Z,54.40
2022-09-23T22:05:23.196Z,54.50
2022-09-23T22:07:49.746Z,54.20
2022-09-23T22:10:16.294Z,54.40
2022-09-23T22:12:42.883Z,54.40
2022-09-23T22:15:09.937Z,54.70
2022-09-23T22:17:36.513Z,54.80
2022-09-23T22:20:03.186Z,55.10
2022-09-23T22:22:30.375Z,55.00
2022-09-23T22:24:56.962Z,55.30
2022-09-23T22:27:24.617Z,55.10
2022-09-23T22:30:10.022Z,55.30
2022-09-23T22:32:46.098Z,55.30
2022-09-23T22:35:18.743Z,55.40
2022-09-23T22:37:45.363Z,55.50
2022-09-23T22:40:14.380Z,55.70
2022-09-23T22:42:41.680Z,55.50
2022-09-23T22:45:08.928Z,55.70
2022-09-23T22:47:37.076Z,55.80
2022-09-23T22:50:04.450Z,55.90
2022-09-23T22:52:31.545Z,56.20
2022-09-23T22:54:58.117Z,55.90
2022-09-23T22:57:24.670Z,56.00
2022-09-23T22:59:51.230Z,56.00
2022-09-23T23:02:18.382Z,55.90
2022-09-23T23:04:46.493Z,56.10
2022-09-23T23:07:13.664Z,56.10
2022-09-23T23:09:40.347Z,56.20
2022-09-23T23:12:07.039Z,56.20
2022-09-23T23:14:33.633Z,56.20
2022-09-23T23:17:00.190Z,56.20
2022-09-23T23:19:26.737Z,56.10
2022-09-23T23:21:53.430Z,56.20
2022-09-23T23:24:21.301Z,56.10
2022-09-23T23:26:48.022Z,56.10
2022-09-23T23:29:15.138Z,56.20
2022-09-23T23:31:41.791Z,56.20
2022-09-23T23:34:10.875Z,56.10
2022-09-23T23:36:37.529Z,56.10
2022-09-23T23:39:04.205Z,56.20
2022-09-23T23:41:31.532Z,56.20
2022-09-23T23:43:58.583Z,56.20
2022-09-23T23:46:26.449Z,56.20
2022-09-23T23:48:53.276Z,56.10
2022-09-23T23:51:19.921Z,56.20
2022-09-23T23:53:46.672Z,56.20
2022-09-23T23:56:13.954Z,56.20
2022-09-23T23:58:41.147Z,56.10
